sensor_id;sensor_type;location;lat;lon;timestamp;pressure;altitude;pressure_sealevel;temperature;humidity
60337;BME280;46978;50.288;28.624;2022-10-17T00:00:34;100511.86;;;1.73;84.24
60337;BME280;46978;50.288;28.624;2022-10-17T00:01:36;100509.35;;;1.75;84.56
60337;BME280;46978;50.288;28.624;2022-10-17T00:02:38;100510.25;;;1.75;84.62
60337;BME280;46978;50.288;28.624;2022-10-17T00:03:40;100509.41;;;1.76;84.48
60337;BME280;46978;50.288;28.624;2022-10-17T00:04:41;100512.02;;;1.78;84.60
60337;BME280;46978;50.288;28.624;2022-10-17T00:05:45;100513.77;;;1.79;84.50
60337;BME280;46978;50.288;28.624;2022-10-17T00:06:48;100518.03;;;1.78;84.48
60337;BME280;46978;50.288;28.624;2022-10-17T00:07:50;100507.85;;;1.80;84.48
60337;BME280;46978;50.288;28.624;2022-10-17T00:08:52;100503.59;;;1.81;84.52
60337;BME280;46978;50.288;28.624;2022-10-17T00:09:53;100497.67;;;1.82;84.33
60337;BME280;46978;50.288;28.624;2022-10-17T00:10:57;100495.97;;;1.82;84.34
60337;BME280;46978;50.288;28.624;2022-10-17T00:12:00;100498.59;;;1.84;84.15
60337;BME280;46978;50.288;28.624;2022-10-17T00:13:01;100491.77;;;1.84;84.35
60337;BME280;46978;50.288;28.624;2022-10-17T00:14:03;100491.77;;;1.84;84.17
60337;BME280;46978;50.288;28.624;2022-10-17T00:15:06;100491.77;;;1.84;84.25
60337;BME280;46978;50.288;28.624;2022-10-17T00:16:09;100490.91;;;1.84;84.24
60337;BME280;46978;50.288;28.624;2022-10-17T00:17:10;100491.77;;;1.84;84.14
60337;BME280;46978;50.288;28.624;2022-10-17T00:18:12;100495.16;;;1.83;83.82
60337;BME280;46978;50.288;28.624;2022-10-17T00:19:14;100491.72;;;1.83;83.89
60337;BME280;46978;50.288;28.624;2022-10-17T00:20:16;100487.44;;;1.82;83.99
60337;BME280;46978;50.288;28.624;2022-10-17T00:21:18;100493.41;;;1.82;83.97
60337;BME280;46978;50.288;28.624;2022-10-17T00:22:20;100497.73;;;1.83;84.12
60337;BME280;46978;50.288;28.624;2022-10-17T00:23:22;100488.34;;;1.84;84.07
60337;BME280;46978;50.288;28.624;2022-10-17T00:24:24;100490.05;;;1.83;83.92
60337;BME280;46978;50.288;28.624;2022-10-17T00:25:26;100497.78;;;1.85;84.12
60337;BME280;46978;50.288;28.624;2022-10-17T00:26:28;100498.59;;;1.84;84.03
60337;BME280;46978;50.288;28.624;2022-10-17T00:27:29;100495.16;;;1.83;83.81
60337;BME280;46978;50.288;28.624;2022-10-17T00:28:32;100498.59;;;1.84;83.77
60337;BME280;46978;50.288;28.624;2022-10-17T00:29:33;100496.78;;;1.81;83.93
60337;BME280;46978;50.288;28.624;2022-10-17T00:30:35;100494.16;;;1.79;83.91
60337;BME280;46978;50.288;28.624;2022-10-17T00:31:37;100497.56;;;1.78;83.88
60337;BME280;46978;50.288;28.624;2022-10-17T00:32:39;100486.44;;;1.78;83.90
60337;BME280;46978;50.288;28.624;2022-10-17T00:33:41;100489.83;;;1.77;83.97
60337;BME280;46978;50.288;28.624;2022-10-17T00:34:42;100485.52;;;1.76;84.02
60337;BME280;46978;50.288;28.624;2022-10-17T00:35:44;100479.54;;;1.75;84.15
60337;BME280;46978;50.288;28.624;2022-10-17T00:36:46;100479.54;;;1.75;84.13
60337;BME280;46978;50.288;28.624;2022-10-17T00:37:48;100468.47;;;1.76;84.24
60337;BME280;46978;50.288;28.624;2022-10-17T00:38:52;100466.80;;;1.77;84.22
60337;BME280;46978;50.288;28.624;2022-10-17T00:39:54;100469.36;;;1.77;84.17
60337;BME280;46978;50.288;28.624;2022-10-17T00:40:57;100472.83;;;1.79;84.30
60337;BME280;46978;50.288;28.624;2022-10-17T00:41:58;100468.58;;;1.79;84.32
60337;BME280;46978;50.288;28.624;2022-10-17T00:43:00;100474.64;;;1.82;84.22
60337;BME280;46978;50.288;28.624;2022-10-17T00:45:03;100479.81;;;1.83;84.18
60337;BME280;46978;50.288;28.624;2022-10-17T00:45:27;100474.75;;;1.85;84.06
60337;BME280;46978;50.288;28.624;2022-10-17T00:46:37;100481.59;;;1.86;84.06
60337;BME280;46978;50.288;28.624;2022-10-17T00:47:35;100479.92;;;1.86;83.89
60337;BME280;46978;50.288;28.624;2022-10-17T00:48:37;100475.72;;;1.88;83.80
60337;BME280;46978;50.288;28.624;2022-10-17T00:49:39;100476.58;;;1.89;83.59
60337;BME280;46978;50.288;28.624;2022-10-17T00:50:43;100474.86;;;1.88;83.60
60337;BME280;46978;50.288;28.624;2022-10-17T00:51:58;100478.27;;;1.88;83.60
60337;BME280;46978;50.288;28.624;2022-10-17T00:53:01;100479.97;;;1.88;83.62
60337;BME280;46978;50.288;28.624;2022-10-17T00:54:05;100479.97;;;1.88;83.78
60337;BME280;46978;50.288;28.624;2022-10-17T00:55:11;100478.22;;;1.87;83.63
60337;BME280;46978;50.288;28.624;2022-10-17T00:56:14;100482.48;;;1.86;83.64
60337;BME280;46978;50.288;28.624;2022-10-17T00:57:17;100480.73;;;1.85;83.76
60337;BME280;46978;50.288;28.624;2022-10-17T00:58:19;100478.11;;;1.84;83.68
60337;BME280;46978;50.288;28.624;2022-10-17T00:59:22;100486.66;;;1.84;83.91
60337;BME280;46978;50.288;28.624;2022-10-17T01:00:25;100491.77;;;1.84;83.74
60337;BME280;46978;50.288;28.624;2022-10-17T01:01:27;100486.59;;;1.83;83.70
60337;BME280;46978;50.288;28.624;2022-10-17T01:02:29;100491.72;;;1.83;83.79
60337;BME280;46978;50.288;28.624;2022-10-17T01:03:30;100483.12;;;1.81;83.83
60337;BME280;46978;50.288;28.624;2022-10-17T01:04:32;100483.98;;;1.81;83.99
60337;BME280;46978;50.288;28.624;2022-10-17T01:05:34;100487.38;;;1.80;83.92
60337;BME280;46978;50.288;28.624;2022-10-17T01:06:37;100487.33;;;1.78;83.90
60337;BME280;46978;50.288;28.624;2022-10-17T01:07:40;100486.44;;;1.78;84.02
60337;BME280;46978;50.288;28.624;2022-10-17T01:08:42;100488.94;;;1.76;83.98
60337;BME280;46978;50.288;28.624;2022-10-17T01:09:45;100483.77;;;1.75;84.01
60337;BME280;46978;50.288;28.624;2022-10-17T01:13:42;100492.23;;;1.72;84.38
60337;BME280;46978;50.288;28.624;2022-10-17T01:16:57;100492.98;;;1.70;84.31
60337;BME280;46978;50.288;28.624;2022-10-17T01:19:06;100499.73;;;1.68;84.38
60337;BME280;46978;50.288;28.624;2022-10-17T01:21:29;100494.45;;;1.63;84.44
60337;BME280;46978;50.288;28.624;2022-10-17T01:25:35;100492.53;;;1.57;84.82
60337;BME280;46978;50.288;28.624;2022-10-17T01:31:53;100496.39;;;1.46;85.23
60337;BME280;46978;50.288;28.624;2022-10-17T01:34:21;100498.95;;;1.46;85.57
60337;BME280;46978;50.288;28.624;2022-10-17T01:35:41;100496.34;;;1.45;85.67
60337;BME280;46978;50.288;28.624;2022-10-17T01:36:55;100495.45;;;1.44;85.73
60337;BME280;46978;50.288;28.624;2022-10-17T01:37:59;100498.00;;;1.44;85.64
60337;BME280;46978;50.288;28.624;2022-10-17T01:39:11;100493.78;;;1.45;85.68
60337;BME280;46978;50.288;28.624;2022-10-17T01:40:27;100486.85;;;1.42;85.67
60337;BME280;46978;50.288;28.624;2022-10-17T01:41:37;100495.33;;;1.41;85.71
60337;BME280;46978;50.288;28.624;2022-10-17T01:42:54;100490.22;;;1.41;85.79
60337;BME280;46978;50.288;28.624;2022-10-17T01:45:08;100487.55;;;1.38;85.79
60337;BME280;46978;50.288;28.624;2022-10-17T01:46:16;100482.43;;;1.38;85.93
60337;BME280;46978;50.288;28.624;2022-10-17T01:47:21;100481.52;;;1.36;86.09
60337;BME280;46978;50.288;28.624;2022-10-17T01:48:27;100492.60;;;1.36;86.37
60337;BME280;46978;50.288;28.624;2022-10-17T01:49:31;100490.05;;;1.36;86.41
60337;BME280;46978;50.288;28.624;2022-10-17T01:50:40;100494.30;;;1.36;86.34
60337;BME280;46978;50.288;28.624;2022-10-17T01:52:52;100489.93;;;1.33;86.36
60337;BME280;46978;50.288;28.624;2022-10-17T01:55:23;100484.80;;;1.32;86.42
60337;BME280;46978;50.288;28.624;2022-10-17T01:56:23;100486.45;;;1.31;86.46
60337;BME280;46978;50.288;28.624;2022-10-17T01:57:38;100490.77;;;1.32;86.43
60337;BME280;46978;50.288;28.624;2022-10-17T01:58:44;100487.38;;;1.33;86.66
60337;BME280;46978;50.288;28.624;2022-10-17T01:59:47;100485.59;;;1.31;86.54
60337;BME280;46978;50.288;28.624;2022-10-17T02:00:51;100485.59;;;1.31;86.53
60337;BME280;46978;50.288;28.624;2022-10-17T02:01:55;100488.95;;;1.30;86.66
60337;BME280;46978;50.288;28.624;2022-10-17T02:03:01;100482.13;;;1.29;86.76
60337;BME280;46978;50.288;28.624;2022-10-17T02:04:05;100488.09;;;1.29;86.77
60337;BME280;46978;50.288;28.624;2022-10-17T02:05:09;100487.30;;;1.30;86.80
60337;BME280;46978;50.288;28.624;2022-10-17T02:06:12;100491.45;;;1.28;86.55
60337;BME280;46978;50.288;28.624;2022-10-17T02:07:14;100493.15;;;1.28;86.73
60337;BME280;46978;50.288;28.624;2022-10-17T02:08:27;100500.82;;;1.28;86.75
60337;BME280;46978;50.288;28.624;2022-10-17T02:09:29;100499.06;;;1.27;86.79
60337;BME280;46978;50.288;28.624;2022-10-17T02:10:43;100496.51;;;1.27;86.71
60337;BME280;46978;50.288;28.624;2022-10-17T02:11:46;100491.45;;;1.28;86.80
60337;BME280;46978;50.288;28.624;2022-10-17T02:12:58;100500.82;;;1.28;86.73
60337;BME280;46978;50.288;28.624;2022-10-17T02:15:42;100496.51;;;1.27;86.78
60337;BME280;46978;50.288;28.624;2022-10-17T02:16:52;100499.06;;;1.27;86.88
60337;BME280;46978;50.288;28.624;2022-10-17T02:20:39;100489.67;;;1.25;87.23
60337;BME280;46978;50.288;28.624;2022-10-17T02:23:02;100489.73;;;1.27;87.05
60337;BME280;46978;50.288;28.624;2022-10-17T02:24:31;100492.23;;;1.25;86.95
60337;BME280;46978;50.288;28.624;2022-10-17T02:25:55;100495.59;;;1.24;86.85
60337;BME280;46978;50.288;28.624;2022-10-17T02:27:05;100492.12;;;1.22;86.84
60337;BME280;46978;50.288;28.624;2022-10-17T02:28:23;100488.67;;;1.22;86.88
60337;BME280;46978;50.288;28.624;2022-10-17T02:29:28;100487.80;;;1.21;86.99
60337;BME280;46978;50.288;28.624;2022-10-17T02:31:53;100486.89;;;1.19;87.02
60337;BME280;46978;50.288;28.624;2022-10-17T02:33:04;100490.19;;;1.17;87.12
60337;BME280;46978;50.288;28.624;2022-10-17T02:34:08;100493.61;;;1.17;87.16
60337;BME280;46978;50.288;28.624;2022-10-17T02:35:13;100489.27;;;1.15;87.30
60337;BME280;46978;50.288;28.624;2022-10-17T02:36:18;100494.38;;;1.15;87.29
60337;BME280;46978;50.288;28.624;2022-10-17T02:37:24;100486.66;;;1.13;87.39
60337;BME280;46978;50.288;28.624;2022-10-17T02:38:28;100490.88;;;1.13;87.14
60337;BME280;46978;50.288;28.624;2022-10-17T02:39:31;100490.81;;;1.11;87.29
60337;BME280;46978;50.288;28.624;2022-10-17T02:40:35;100489.09;;;1.10;87.30
60337;BME280;46978;50.288;28.624;2022-10-17T02:41:39;100488.26;;;1.11;87.40
60337;BME280;46978;50.288;28.624;2022-10-17T02:42:43;100486.54;;;1.10;87.40
60337;BME280;46978;50.288;28.624;2022-10-17T02:43:48;100493.31;;;1.10;87.54
60337;BME280;46978;50.288;28.624;2022-10-17T02:44:52;100496.77;;;1.10;87.60
60337;BME280;46978;50.288;28.624;2022-10-17T02:45:55;100491.65;;;1.10;87.53
60337;BME280;46978;50.288;28.624;2022-10-17T02:47:06;100499.31;;;1.10;87.59
60337;BME280;46978;50.288;28.624;2022-10-17T02:48:29;100496.64;;;1.07;87.54
60337;BME280;46978;50.288;28.624;2022-10-17T02:49:33;100503.48;;;1.08;87.73
60337;BME280;46978;50.288;28.624;2022-10-17T02:52:58;100509.42;;;1.07;87.68
60337;BME280;46978;50.288;28.624;2022-10-17T02:54:09;100508.59;;;1.08;87.74
60337;BME280;46978;50.288;28.624;2022-10-17T02:55:22;100506.87;;;1.07;87.79
60337;BME280;46978;50.288;28.624;2022-10-17T02:56:25;100503.48;;;1.08;87.86
60337;BME280;46978;50.288;28.624;2022-10-17T02:57:37;100509.48;;;1.09;87.71
60337;BME280;46978;50.288;28.624;2022-10-17T02:58:41;100503.48;;;1.08;87.90
60337;BME280;46978;50.288;28.624;2022-10-17T02:59:44;100501.81;;;1.09;87.87
60337;BME280;46978;50.288;28.624;2022-10-17T03:00:47;100500.92;;;1.08;87.64
60337;BME280;46978;50.288;28.624;2022-10-17T03:01:50;100500.00;;;1.06;87.67
60337;BME280;46978;50.288;28.624;2022-10-17T03:02:53;100500.00;;;1.06;87.67
60337;BME280;46978;50.288;28.624;2022-10-17T03:04:07;100505.23;;;1.09;87.78
60337;BME280;46978;50.288;28.624;2022-10-17T03:05:11;100511.15;;;1.08;87.73
60337;BME280;46978;50.288;28.624;2022-10-17T03:06:14;100507.73;;;1.07;87.85
60337;BME280;46978;50.288;28.624;2022-10-17T03:07:16;100505.97;;;1.06;87.81
60337;BME280;46978;50.288;28.624;2022-10-17T03:08:18;100509.30;;;1.04;88.15
60337;BME280;46978;50.288;28.624;2022-10-17T03:09:20;100509.30;;;1.04;88.15
60337;BME280;46978;50.288;28.624;2022-10-17T03:10:22;100519.53;;;1.04;87.96
60337;BME280;46978;50.288;28.624;2022-10-17T03:11:24;100510.91;;;1.02;87.86
60337;BME280;46978;50.288;28.624;2022-10-17T03:12:25;100512.55;;;1.00;88.05
60337;BME280;46978;50.288;28.624;2022-10-17T03:13:28;100510.79;;;0.99;88.05
60337;BME280;46978;50.288;28.624;2022-10-17T03:14:30;100510.79;;;0.99;88.12
60337;BME280;46978;50.288;28.624;2022-10-17T03:15:32;100515.84;;;0.97;88.20
60337;BME280;46978;50.288;28.624;2022-10-17T03:16:33;100520.95;;;0.97;88.12
60337;BME280;46978;50.288;28.624;2022-10-17T03:17:35;100515.84;;;0.97;88.06
60337;BME280;46978;50.288;28.624;2022-10-17T03:18:37;100513.22;;;0.96;88.13
60337;BME280;46978;50.288;28.624;2022-10-17T03:19:39;100513.22;;;0.96;88.27
60337;BME280;46978;50.288;28.624;2022-10-17T03:21:42;100514.06;;;0.95;88.29
60337;BME280;46978;50.288;28.624;2022-10-17T03:22:43;100512.36;;;0.95;88.32
60337;BME280;46978;50.288;28.624;2022-10-17T03:23:45;100517.47;;;0.95;88.33
60337;BME280;46978;50.288;28.624;2022-10-17T03:24:47;100520.83;;;0.94;88.32
60337;BME280;46978;50.288;28.624;2022-10-17T03:25:48;100514.92;;;0.95;88.43
60337;BME280;46978;50.288;28.624;2022-10-17T03:26:50;100518.27;;;0.94;88.46
60337;BME280;46978;50.288;28.624;2022-10-17T03:27:52;100510.61;;;0.94;88.42
60337;BME280;46978;50.288;28.624;2022-10-17T03:28:54;100517.41;;;0.94;88.38
60337;BME280;46978;50.288;28.624;2022-10-17T03:29:56;100519.97;;;0.94;88.39
60337;BME280;46978;50.288;28.624;2022-10-17T03:30:58;100518.22;;;0.93;88.48
60337;BME280;46978;50.288;28.624;2022-10-17T03:32:00;100517.36;;;0.92;88.59
60337;BME280;46978;50.288;28.624;2022-10-17T03:33:02;100521.61;;;0.92;88.54
60337;BME280;46978;50.288;28.624;2022-10-17T03:34:03;100526.72;;;0.92;88.64
60337;BME280;46978;50.288;28.624;2022-10-17T03:35:06;100527.58;;;0.92;88.68
60337;BME280;46978;50.288;28.624;2022-10-17T03:36:10;100533.48;;;0.91;88.49
60337;BME280;46978;50.288;28.624;2022-10-17T03:37:13;100530.87;;;0.89;88.40
60337;BME280;46978;50.288;28.624;2022-10-17T03:38:14;100533.42;;;0.89;88.54
60337;BME280;46978;50.288;28.624;2022-10-17T03:39:16;100534.26;;;0.88;88.65
60337;BME280;46978;50.288;28.624;2022-10-17T03:40:19;100528.25;;;0.88;88.68
60337;BME280;46978;50.288;28.624;2022-10-17T03:41:20;100528.19;;;0.86;88.60
60337;BME280;46978;50.288;28.624;2022-10-17T03:42:22;100538.41;;;0.86;88.73
60337;BME280;46978;50.288;28.624;2022-10-17T03:43:24;100536.69;;;0.85;88.57
60337;BME280;46978;50.288;28.624;2022-10-17T03:44:26;100543.52;;;0.86;88.60
60337;BME280;46978;50.288;28.624;2022-10-17T03:45:28;100546.91;;;0.85;88.69
60337;BME280;46978;50.288;28.624;2022-10-17T03:46:30;100548.58;;;0.85;88.65
60337;BME280;46978;50.288;28.624;2022-10-17T03:47:32;100541.80;;;0.85;88.72
60337;BME280;46978;50.288;28.624;2022-10-17T03:48:34;100542.60;;;0.84;88.78
60337;BME280;46978;50.288;28.624;2022-10-17T03:49:36;100541.74;;;0.84;88.74
60337;BME280;46978;50.288;28.624;2022-10-17T03:50:37;100534.94;;;0.84;88.76
60337;BME280;46978;50.288;28.624;2022-10-17T03:51:39;100537.49;;;0.84;88.73
60337;BME280;46978;50.288;28.624;2022-10-17T03:52:41;100534.94;;;0.84;88.71
60337;BME280;46978;50.288;28.624;2022-10-17T03:53:44;100535.73;;;0.83;88.74
60337;BME280;46978;50.288;28.624;2022-10-17T03:54:46;100533.18;;;0.83;88.73
60337;BME280;46978;50.288;28.624;2022-10-17T03:55:49;100534.88;;;0.83;88.78
60337;BME280;46978;50.288;28.624;2022-10-17T03:56:51;100531.45;;;0.82;88.81
60337;BME280;46978;50.288;28.624;2022-10-17T03:57:53;100534.02;;;0.82;88.92
60337;BME280;46978;50.288;28.624;2022-10-17T03:58:55;100534.02;;;0.82;88.88
60337;BME280;46978;50.288;28.624;2022-10-17T03:59:57;100537.37;;;0.81;88.68
60337;BME280;46978;50.288;28.624;2022-10-17T04:01:04;100537.37;;;0.81;88.80
60337;BME280;46978;50.288;28.624;2022-10-17T04:02:04;100539.00;;;0.79;88.77
60337;BME280;46978;50.288;28.624;2022-10-17T04:03:05;100531.34;;;0.79;88.84
60337;BME280;46978;50.288;28.624;2022-10-17T04:04:08;100532.14;;;0.78;88.91
60337;BME280;46978;50.288;28.624;2022-10-17T04:05:10;100533.83;;;0.78;88.87
60337;BME280;46978;50.288;28.624;2022-10-17T04:06:12;100527.83;;;0.77;88.92
60337;BME280;46978;50.288;28.624;2022-10-17T04:07:13;100530.38;;;0.77;89.06
60337;BME280;46978;50.288;28.624;2022-10-17T04:08:15;100527.83;;;0.77;89.07
60337;BME280;46978;50.288;28.624;2022-10-17T04:09:17;100526.11;;;0.76;89.06
60337;BME280;46978;50.288;28.624;2022-10-17T04:10:19;100533.83;;;0.78;89.21
60337;BME280;46978;50.288;28.624;2022-10-17T04:11:21;100526.11;;;0.76;89.13
60337;BME280;46978;50.288;28.624;2022-10-17T04:12:24;100534.63;;;0.77;89.08
60337;BME280;46978;50.288;28.624;2022-10-17T04:13:26;100533.77;;;0.76;88.99
60337;BME280;46978;50.288;28.624;2022-10-17T04:14:28;100533.77;;;0.76;89.13
60337;BME280;46978;50.288;28.624;2022-10-17T04:15:30;100535.43;;;0.76;89.13
60337;BME280;46978;50.288;28.624;2022-10-17T04:16:31;100535.36;;;0.74;88.94
60337;BME280;46978;50.288;28.624;2022-10-17T04:17:33;100532.81;;;0.74;89.12
60337;BME280;46978;50.288;28.624;2022-10-17T04:18:35;100538.81;;;0.75;89.16
60337;BME280;46978;50.288;28.624;2022-10-17T04:19:37;100534.56;;;0.75;89.29
60337;BME280;46978;50.288;28.624;2022-10-17T04:20:38;100530.26;;;0.74;89.28
60337;BME280;46978;50.288;28.624;2022-10-17T04:21:40;100528.59;;;0.75;89.35
60337;BME280;46978;50.288;28.624;2022-10-17T04:22:42;100528.59;;;0.75;89.26
60337;BME280;46978;50.288;28.624;2022-10-17T04:23:44;100526.04;;;0.75;89.30
60337;BME280;46978;50.288;28.624;2022-10-17T04:24:45;100526.91;;;0.75;89.33
60337;BME280;46978;50.288;28.624;2022-10-17T04:25:47;100523.55;;;0.76;89.35
60337;BME280;46978;50.288;28.624;2022-10-17T04:26:49;100524.41;;;0.77;89.24
60337;BME280;46978;50.288;28.624;2022-10-17T04:27:52;100520.16;;;0.77;89.14
60337;BME280;46978;50.288;28.624;2022-10-17T04:28:53;100515.88;;;0.76;89.04
60337;BME280;46978;50.288;28.624;2022-10-17T04:29:55;100514.25;;;0.78;89.05
60337;BME280;46978;50.288;28.624;2022-10-17T04:31:09;100525.27;;;0.77;88.83
60337;BME280;46978;50.288;28.624;2022-10-17T04:32:11;100525.27;;;0.77;88.83
60337;BME280;46978;50.288;28.624;2022-10-17T04:33:13;100533.89;;;0.79;89.04
60337;BME280;46978;50.288;28.624;2022-10-17T04:34:15;100533.89;;;0.79;88.97
60337;BME280;46978;50.288;28.624;2022-10-17T04:35:16;100529.64;;;0.80;89.07
60337;BME280;46978;50.288;28.624;2022-10-17T04:36:19;100523.73;;;0.81;89.07
60337;BME280;46978;50.288;28.624;2022-10-17T04:37:20;100519.42;;;0.80;88.91
60337;BME280;46978;50.288;28.624;2022-10-17T04:38:22;100534.69;;;0.78;88.88
60337;BME280;46978;50.288;28.624;2022-10-17T04:39:24;100525.33;;;0.79;88.69
60337;BME280;46978;50.288;28.624;2022-10-17T04:40:26;100517.73;;;0.80;88.68
60337;BME280;46978;50.288;28.624;2022-10-17T04:41:28;100531.34;;;0.79;88.77
60337;BME280;46978;50.288;28.624;2022-10-17T04:42:29;100523.80;;;0.82;88.87
60337;BME280;46978;50.288;28.624;2022-10-17T04:43:33;100523.80;;;0.82;88.87
60337;BME280;46978;50.288;28.624;2022-10-17T04:44:35;100523.86;;;0.84;88.84
60337;BME280;46978;50.288;28.624;2022-10-17T04:45:37;100540.05;;;0.84;88.86
60337;BME280;46978;50.288;28.624;2022-10-17T04:46:39;100530.69;;;0.85;88.84
60337;BME280;46978;50.288;28.624;2022-10-17T04:47:41;100540.11;;;0.86;88.93
60337;BME280;46978;50.288;28.624;2022-10-17T04:48:42;100527.39;;;0.87;88.93
60337;BME280;46978;50.288;28.624;2022-10-17T04:49:44;100525.77;;;0.89;88.88
60337;BME280;46978;50.288;28.624;2022-10-17T04:51:00;100530.93;;;0.91;88.94
60337;BME280;46978;50.288;28.624;2022-10-17T04:52:02;100527.58;;;0.92;88.83
60337;BME280;46978;50.288;28.624;2022-10-17T04:53:04;100525.08;;;0.94;88.79
60337;BME280;46978;50.288;28.624;2022-10-17T04:54:06;100523.45;;;0.96;88.84
60337;BME280;46978;50.288;28.624;2022-10-17T04:55:08;100528.68;;;0.99;88.66
60337;BME280;46978;50.288;28.624;2022-10-17T04:56:16;100533.91;;;1.02;88.59
60337;BME280;46978;50.288;28.624;2022-10-17T04:57:18;100534.86;;;1.04;88.61
60337;BME280;46978;50.288;28.624;2022-10-17T04:58:21;100535.79;;;1.06;88.52
60337;BME280;46978;50.288;28.624;2022-10-17T04:59:24;100533.34;;;1.09;88.34
60337;BME280;46978;50.288;28.624;2022-10-17T05:00:26;100535.97;;;1.11;88.34
60337;BME280;46978;50.288;28.624;2022-10-17T05:01:28;100536.14;;;1.15;88.26
60337;BME280;46978;50.288;28.624;2022-10-17T05:02:30;100531.16;;;1.18;88.22
60337;BME280;46978;50.288;28.624;2022-10-17T05:03:32;100533.83;;;1.21;87.99
60337;BME280;46978;50.288;28.624;2022-10-17T05:04:34;100526.27;;;1.24;87.92
60337;BME280;46978;50.288;28.624;2022-10-17T05:05:40;100530.70;;;1.29;87.87
60337;BME280;46978;50.288;28.624;2022-10-17T05:06:42;100527.38;;;1.31;87.77
60337;BME280;46978;50.288;28.624;2022-10-17T05:07:44;100529.23;;;1.35;87.50
60337;BME280;46978;50.288;28.624;2022-10-17T05:08:46;100537.03;;;1.38;87.45
60337;BME280;46978;50.288;28.624;2022-10-17T05:09:48;100534.70;;;1.45;87.10
60337;BME280;46978;50.288;28.624;2022-10-17T05:10:50;100534.70;;;1.45;87.10
60337;BME280;46978;50.288;28.624;2022-10-17T05:11:51;100535.68;;;1.48;86.95
60337;BME280;46978;50.288;28.624;2022-10-17T05:12:53;100539.21;;;1.52;86.89
60337;BME280;46978;50.288;28.624;2022-10-17T05:13:57;100535.16;;;1.57;86.76
60337;BME280;46978;50.288;28.624;2022-10-17T05:15:00;100533.58;;;1.60;86.48
60337;BME280;46978;50.288;28.624;2022-10-17T05:16:01;100531.98;;;1.64;86.30
60337;BME280;46978;50.288;28.624;2022-10-17T05:17:03;100534.72;;;1.69;86.02
60337;BME280;46978;50.288;28.624;2022-10-17T05:18:05;100530.66;;;1.74;85.77
60337;BME280;46978;50.288;28.624;2022-10-17T05:19:07;100530.83;;;1.78;85.70
60337;BME280;46978;50.288;28.624;2022-10-17T05:20:11;100534.36;;;1.82;85.52
60337;BME280;46978;50.288;28.624;2022-10-17T05:21:13;100543.06;;;1.87;85.37
60337;BME280;46978;50.288;28.624;2022-10-17T05:22:14;100542.37;;;1.91;85.19
60337;BME280;46978;50.288;28.624;2022-10-17T05:23:16;100540.78;;;1.95;84.87
60337;BME280;46978;50.288;28.624;2022-10-17T05:24:18;100545.20;;;1.99;84.52
60337;BME280;46978;50.288;28.624;2022-10-17T05:25:20;100544.56;;;2.05;84.62
60337;BME280;46978;50.288;28.624;2022-10-17T05:26:22;100544.67;;;2.08;84.42
60337;BME280;46978;50.288;28.624;2022-10-17T05:27:25;100538.81;;;2.12;84.23
60337;BME280;46978;50.288;28.624;2022-10-17T05:28:26;100544.99;;;2.17;84.06
60337;BME280;46978;50.288;28.624;2022-10-17T05:29:28;100541.70;;;2.21;83.92
60337;BME280;46978;50.288;28.624;2022-10-17T05:30:30;100539.30;;;2.26;83.70
60337;BME280;46978;50.288;28.624;2022-10-17T05:31:32;100549.75;;;2.32;83.58
60337;BME280;46978;50.288;28.624;2022-10-17T05:32:34;100552.52;;;2.38;83.48
60337;BME280;46978;50.288;28.624;2022-10-17T05:33:36;100546.70;;;2.42;83.34
60337;BME280;46978;50.288;28.624;2022-10-17T05:34:38;100544.34;;;2.48;83.13
60337;BME280;46978;50.288;28.624;2022-10-17T05:35:40;100548.77;;;2.53;82.58
60337;BME280;46978;50.288;28.624;2022-10-17T05:36:42;100548.02;;;2.57;82.57
60337;BME280;46978;50.288;28.624;2022-10-17T05:37:44;100545.61;;;2.61;82.60
60337;BME280;46978;50.288;28.624;2022-10-17T05:38:49;100549.23;;;2.68;82.42
60337;BME280;46978;50.288;28.624;2022-10-17T05:39:51;100550.28;;;2.73;82.24
60337;BME280;46978;50.288;28.624;2022-10-17T05:40:57;100551.30;;;2.78;82.00
60337;BME280;46978;50.288;28.624;2022-10-17T05:41:59;100553.20;;;2.84;81.93
60337;BME280;46978;50.288;28.624;2022-10-17T05:43:01;100551.69;;;2.91;81.64
60337;BME280;46978;50.288;28.624;2022-10-17T05:44:03;100555.31;;;2.97;81.40
60337;BME280;46978;50.288;28.624;2022-10-17T05:45:05;100560.58;;;3.02;81.13
60337;BME280;46978;50.288;28.624;2022-10-17T05:46:08;100564.23;;;3.09;81.15
60337;BME280;46978;50.288;28.624;2022-10-17T05:47:10;100563.53;;;3.14;81.02
60337;BME280;46978;50.288;28.624;2022-10-17T05:48:13;100569.75;;;3.21;80.90
60337;BME280;46978;50.288;28.624;2022-10-17T05:49:15;100566.53;;;3.28;80.71
60337;BME280;46978;50.288;28.624;2022-10-17T05:50:17;100566.72;;;3.34;80.42
60337;BME280;46978;50.288;28.624;2022-10-17T05:51:19;100564.34;;;3.40;80.28
60337;BME280;46978;50.288;28.624;2022-10-17T05:52:21;100566.27;;;3.48;80.12
60337;BME280;46978;50.288;28.624;2022-10-17T05:53:23;100557.00;;;3.53;79.86
60337;BME280;46978;50.288;28.624;2022-10-17T05:54:24;100566.64;;;3.60;79.50
60337;BME280;46978;50.288;28.624;2022-10-17T05:55:27;100568.57;;;3.67;79.54
60337;BME280;46978;50.288;28.624;2022-10-17T05:56:28;100574.74;;;3.74;79.26
60337;BME280;46978;50.288;28.624;2022-10-17T05:57:30;100568.92;;;3.80;79.06
60337;BME280;46978;50.288;28.624;2022-10-17T05:58:32;100569.11;;;3.86;78.72
60337;BME280;46978;50.288;28.624;2022-10-17T05:59:34;100574.45;;;3.93;78.57
60337;BME280;46978;50.288;28.624;2022-10-17T06:00:36;100572.03;;;4.00;78.20
60337;BME280;46978;50.288;28.624;2022-10-17T06:01:37;100585.09;;;4.07;77.79
60337;BME280;46978;50.288;28.624;2022-10-17T06:02:39;100582.69;;;4.13;77.65
60337;BME280;46978;50.288;28.624;2022-10-17T06:03:41;100580.33;;;4.21;77.58